Terminal Aerodrome Forecast
Issued by NWS

Home | Current Version | Previous Version | Text Only | Print | Product List | Glossary On
Versions: 1 2 3 4 5 6 7 8 9 10 11 12 13 14 15 16 17 18 19 20 21 22 23 24 25 26 27 28 29 30
652
FTUS45 KLKN 181734
TAFTPH
TAF
KTPH 181734Z 1818/1918 16005KT P6SM BKN100
     FM182000 18010KT P6SM BKN080
     FM190300 14007KT P6SM VCSH BKN040
     FM191000 14006KT 3SM -SN BR BKN020=

USA.gov is the U.S. government's official web portal to all federal, state and local government web resources and services.